Latest Coastal Weather Observations for Kingscote

IDS60701

Issued at 4:21 pm CDT Wednesday 18 October 2017 (issued every 10 minutes, with the page automatically refreshed every 10 minutes)

About coastal observations | Map of coastal stations | Coastal observations for SA | Marine services | Other Formats
Station Details ID: 022841 Name: KINGSCOTE AERO Lat: -35.71 Lon: 137.52 Height: 6.23 m
Data from the previous 72 hours. | See also: Recent months at Kingscote
Date/Time
CDT
Temp
°C
Wind Pressure Rain since
9am
mm
Weather Cloud Vis
km
Sea
Height
m
Swell
Dir  Spd
kts
Gust
kts
hPa Trend Height
m
Period
s
Dir
18/04:00pm 30.9 N 10 14 1011.2 - 0.0 - Partly cloudy 10 - - - -
18/03:30pm 31.5 NNW 13 18 1011.5 - 0.0 - Partly cloudy 10 - - - -
18/03:00pm 31.8 NNW 13 16 1011.8 - 0.0 - Partly cloudy 10 - - - -
18/02:30pm 30.7 NNW 15 20 1012.2 - 0.0 - - 10 - - - -
18/02:00pm 30.6 NNW 13 18 1012.6 - 0.0 - - 10 - - - -
18/01:30pm 29.9 NNW 12 19 1012.6 - 0.0 - - 10 - - - -
18/01:00pm 29.3 NNW 15 20 1012.9 - 0.0 - - 10 - - - -
18/12:30pm 29.4 NNW 15 25 1013.2 - 0.0 - - 10 - - - -
18/12:00pm 28.9 NNW 16 26 1013.3 - 0.0 - - 10 - - - -
18/11:35am 29.4 N 15 25 1013.5 - 0.0 - - 10 - - - -
18/11:30am 29.2 N 13 19 1013.5 - 0.0 - - 10 - - - -
18/11:00am 28.1 N 15 22 1013.8 - 0.0 - - 10 - - - -
18/10:30am 27.3 NNW 13 22 1014.0 - 0.0 - - 10 - - - -
18/10:00am 24.0 NNW 11 14 1014.0 - 0.0 - - 10 - - - -
18/09:30am 24.2 N 13 17 1013.8 - 0.0 - - 10 - - - -
18/09:00am 24.3 N 12 19 1013.6 - 0.0 - Mostly clear 10 - - - -
18/08:30am 23.6 N 11 17 1013.6 - 0.0 - - 10 - - - -
18/08:00am 22.9 N 10 16 1013.6 - 0.0 - - 10 - - - -
18/07:30am 21.3 NNW 8 12 1013.4 - 0.0 - - 10 - - - -
18/07:00am 20.2 N 7 11 1013.0 - 0.0 - - 10 - - - -
18/06:30am 20.6 N 9 13 1012.7 - 0.0 - - 10 - - - -
18/06:00am 20.6 N 10 14 1012.4 - 0.0 - Mostly cloudy 10 - - - -
18/05:30am 20.9 N 10 15 1012.2 - 0.0 - - 10 - - - -
18/05:00am 20.1 NNE 6 10 1012.2 - 0.0 - - 10 - - - -
18/04:30am 18.0 N 2 5 1012.4 - 0.0 - - 10 - - - -
18/04:00am 16.2 NW 4 5 1012.4 - 0.0 - - 10 - - - -
18/03:30am 17.6 NNW 4 5 1012.6 - 0.0 - - 10 - - - -
18/03:00am 21.1 NNE 13 21 1012.5 - 0.0 - - 10 - - - -
18/02:37am 20.2 NNE 7 13 1012.4 - 0.0 - - 10 - - - -
18/02:30am 15.0 WNW 3 6 1012.6 - 0.0 - - 10 - - - -
18/02:13am 15.3 W 4 9 1012.7 - 0.0 - - 10 - - - -
18/02:00am 20.3 NNE 7 12 1012.8 - 0.0 - - 10 - - - -
18/01:57am 19.4 NNE 5 11 1012.8 - 0.0 - - 10 - - - -
18/01:30am 14.3 CALM 0 0 1013.5 - 0.0 - Partly cloudy 10 - - - -
18/01:00am 13.9 CALM 0 0 1013.9 - 0.0 - Partly cloudy 10 - - - -
18/12:30am 13.7 CALM 0 3 1013.9 - 0.0 - - 10 - - - -
18/12:00am 15.9 NE 5 6 1014.1 - 0.0 - - 10 - - - -
 
Date/Time
CDT
Temp
°C
Wind Pressure Rain since
9am
mm
Weather Cloud Vis
km
Sea
Height
m
Swell
Dir  Spd
kts
Gust
kts
hPa Trend Height
m
Period
s
Dir
17/11:30pm 14.6 N 3 5 1014.3 - 0.0 - - 10 - - - -
17/11:00pm 15.3 CALM 0 0 1014.4 - 0.0 - - 10 - - - -
17/10:30pm 16.7 CALM 0 0 1014.7 - 0.0 - - 10 - - - -
17/10:00pm 17.1 CALM 0 0 1014.7 - 0.0 - - 10 - - - -
17/09:30pm 18.3 CALM 0 0 1014.7 - 0.0 - - 10 - - - -
17/09:00pm 19.4 ENE 6 7 1014.4 - 0.0 - Partly cloudy 10 - - - -
17/08:30pm 20.4 NE 6 7 1014.0 - 0.0 - - 10 - - - -
17/08:00pm 20.1 ENE 6 6 1013.8 - 0.0 - - 10 - - - -
17/07:30pm 21.0 ENE 7 8 1013.5 - 0.0 - - 10 - - - -
17/07:00pm 22.8 ENE 8 9 1013.2 - 0.0 - - 10 - - - -
17/06:30pm 25.3 E 6 9 1013.2 - 0.0 - - 10 - - - -
17/06:00pm 28.2 NE 10 13 1013.0 - 0.0 - - 10 - - - -
17/05:30pm 29.7 N 7 11 1013.4 - 0.0 - - 10 - - - -
17/05:00pm 29.9 N 8 11 1013.7 - 0.0 - - 10 - - - -
17/04:30pm 29.7 N 9 14 1013.8 - 0.0 - - 10 - - - -
17/04:00pm 29.8 N 10 17 1013.9 - 0.0 - - 10 - - - -
17/03:30pm 29.4 N 11 17 1013.8 - 0.0 - - 10 - - - -
17/03:00pm 29.0 N 14 19 1014.0 - 0.0 - - 10 - - - -
17/02:30pm 28.8 N 13 19 1014.3 - 0.0 - - 10 - - - -
17/02:00pm 29.1 N 13 16 1014.4 - 0.0 - - 10 - - - -
17/01:30pm 29.5 N 11 18 1014.5 - 0.0 - - 10 - - - -
17/01:00pm 28.5 N 14 20 1014.8 - 0.0 - - 10 - - - -
17/12:30pm 28.5 N 13 19 1015.0 - 0.0 - - 10 - - - -
17/12:00pm 27.4 N 15 22 1015.2 - 0.0 - - 10 - - - -
17/11:30am 27.4 N 11 16 1015.5 - 0.0 - - 10 - - - -
17/11:00am 27.2 N 12 16 1015.6 - 0.0 - - 10 - - - -
17/10:30am 26.7 N 12 19 1015.4 - 0.0 - - 10 - - - -
17/10:00am 25.7 NNE 9 11 1015.4 - 0.0 - - 10 - - - -
17/09:30am 24.4 N 12 17 1015.2 - 0.0 - - 10 - - - -
17/09:00am 23.1 N 10 16 1015.1 - 0.0 - - 10 - - - -
17/08:30am 22.2 NNE 10 14 1015.3 - 0.0 - - 10 - - - -
17/08:00am 21.1 N 9 15 1015.2 - 0.0 - - 10 - - - -
17/07:30am 20.2 N 7 10 1015.0 - 0.0 - - 10 - - - -
17/07:00am 18.7 NNE 7 10 1014.6 - 0.0 - - 10 - - - -
17/06:30am 18.7 NNE 9 12 1014.3 - 0.0 - - 10 - - - -
17/06:00am 19.6 NNE 9 13 1014.0 - 0.0 - - 10 - - - -
17/05:30am 19.2 NE 10 13 1013.8 - 0.0 - - 10 - - - -
17/05:00am 19.8 NNE 10 13 1013.8 - 0.0 - - 10 - - - -
17/04:30am 21.0 NNE 14 18 1013.7 - 0.0 - - 10 - - - -
17/04:00am 20.4 NNE 10 13 1013.7 - 0.0 - - 10 - - - -
17/03:30am 19.8 NNE 10 14 1013.8 - 0.0 - - 10 - - - -
17/03:00am 19.2 NNE 9 13 1014.1 - 0.0 - - 10 - - - -
17/02:30am 18.8 NNE 5 8 1014.5 - 0.0 - - 10 - - - -
17/02:00am 19.3 NE 7 9 1014.7 - 0.0 - - 10 - - - -
17/01:30am 21.0 NE 11 14 1014.9 - 0.0 - - 10 - - - -
17/01:00am 21.3 ENE 15 19 1015.0 - 0.0 - - 10 - - - -
17/12:30am 21.7 ENE 12 18 1015.3 - 0.0 - - 10 - - - -
17/12:00am 20.6 NE 8 13 1015.9 - 0.0 - - 10 - - - -
 
Date/Time
CDT
Temp
°C
Wind Pressure Rain since
9am
mm
Weather Cloud Vis
km
Sea
Height
m
Swell
Dir  Spd
kts
Gust
kts
hPa Trend Height
m
Period
s
Dir
16/11:30pm 19.7 NNE 5 7 1016.5 - 0.0 - - 10 - - - -
16/11:00pm 15.4 SE 1 4 1016.7 - 0.0 - - 10 - - - -
16/10:30pm 19.6 ENE 5 6 1016.8 - 0.0 - - 10 - - - -
16/10:00pm 18.8 ENE 7 8 1016.8 - 0.0 - - 10 - - - -
16/09:30pm 19.2 ENE 7 9 1016.8 - 0.0 - - 10 - - - -
16/09:00pm 19.1 ENE 6 7 1016.6 - 0.0 - - 10 - - - -
16/08:30pm 20.0 ENE 6 7 1016.4 - 0.0 - - 10 - - - -
16/08:00pm 20.7 ENE 7 9 1016.3 - 0.0 - - 10 - - - -
16/07:30pm 22.5 E 7 8 1016.1 - 0.0 - - 10 - - - -
16/07:00pm 24.2 E 8 10 1016.3 - 0.0 - - 10 - - - -
16/06:30pm 25.2 ENE 10 14 1016.3 - 0.0 - - 10 - - - -
16/06:00pm 25.6 ENE 9 11 1016.2 - 0.0 - - 10 - - - -
16/05:30pm 26.2 ENE 10 12 1016.4 - 0.0 - - 10 - - - -
16/05:00pm 26.1 E 8 10 1016.5 - 0.0 - - 10 - - - -
16/04:30pm 26.7 ENE 8 11 1016.7 - 0.0 - - 10 - - - -
16/04:00pm 26.3 ENE 8 12 1016.8 - 0.0 - - 10 - - - -
16/03:30pm 26.6 ENE 8 11 1017.0 - 0.0 - - 10 - - - -
16/03:00pm 27.5 ENE 7 9 1017.3 - 0.0 - - 10 - - - -
16/02:30pm 27.1 NE 8 11 1017.7 - 0.0 - - 10 - - - -
16/02:00pm 26.8 NE 8 11 1018.1 - 0.0 - - 10 - - - -
16/01:30pm 27.0 ENE 8 11 1018.3 - 0.0 - - 10 - - - -
16/01:00pm 25.8 NE 9 12 1018.5 - 0.0 - - 10 - - - -
16/12:30pm 24.7 NE 7 9 1018.9 - 0.0 - - 10 - - - -
16/12:00pm 24.2 ENE 6 10 1019.3 - 0.0 - - 10 - - - -
16/11:30am 24.3 E 6 9 1019.6 - 0.0 - - 10 - - - -
16/11:00am 22.9 NE 5 8 1020.0 - 0.0 - - 10 - - - -
16/10:30am 21.0 ENE 5 6 1020.2 - 0.0 - - 10 - - - -
16/10:00am 18.4 NNE 2 6 1020.4 - 0.0 - - 10 - - - -
16/09:30am 16.2 CALM 0 0 1020.6 - 0.0 - - 10 - - - -
16/09:00am 15.1 CALM 0 0 1020.7 - 0.0 - Mostly clear 10 - - - -
16/08:55am 14.8 CALM 0 0 1020.7 - 0.0 - Partly cloudy 10 - - - -
16/08:46am 14.8 CALM 0 0 1020.7 - 0.0 - Partly cloudy 10 - - - -
16/08:30am 14.5 W 1 4 1020.8 - 0.0 - Cloudy 0.7 - - - -
16/08:00am 13.6 WSW 5 6 1020.7 - 0.0 - Cloudy 0.2 - - - -
16/07:30am 12.9 W 4 5 1020.6 - 0.0 - Cloudy 0.1 - - - -
16/07:00am 12.6 WSW 3 4 1020.5 - 0.0 - Cloudy 0.1 - - - -
16/06:30am 12.2 WSW 4 5 1020.3 - 0.0 - Cloudy 0.1 - - - -
16/06:00am 11.3 WSW 5 5 1020.3 - 0.0 - Cloudy 0.1 - - - -
16/05:30am 9.6 SW 5 6 1020.1 - 0.0 - Cloudy 0.1 - - - -
16/05:00am 8.3 WSW 5 6 1019.9 - 0.0 - Cloudy 0.2 - - - -
16/04:30am 8.3 WSW 5 6 1019.9 - 0.0 - Cloudy 0.2 - - - -
16/04:00am 8.6 W 5 5 1020.1 - 0.0 - Cloudy 0.2 - - - -
16/03:30am 7.9 SW 6 6 1020.4 - 0.0 - Partly cloudy 0.2 - - - -
16/03:00am 8.1 SSW 4 5 1020.5 - 0.0 - Cloudy 0.2 - - - -
16/02:33am 7.7 SW 6 7 1020.9 - 0.0 - Partly cloudy 0.2 - - - -
16/02:30am 7.6 SW 6 7 1020.9 - 0.0 - Partly cloudy 0.2 - - - -
16/02:00am 8.0 SW 5 6 1021.4 - 0.0 - - 0.3 - - - -
16/01:30am 8.5 SW 4 5 1021.7 - 0.0 - - 2 - - - -
16/01:27am 8.4 SW 4 5 1021.7 - 0.0 - - 4 - - - -
16/01:24am 8.5 SW 4 6 1021.8 - 0.0 - - 10 - - - -
16/01:00am 8.4 SW 6 6 1022.1 - 0.0 - - 3 - - - -
16/12:56am 8.3 SW 6 6 1022.1 - 0.0 - - 5 - - - -
16/12:40am 8.5 SSW 4 6 1022.2 - 0.0 - - 10 - - - -
16/12:30am 8.3 SW 6 7 1022.2 - 0.0 - - 5 - - - -
16/12:21am 8.6 SW 5 6 1022.3 - 0.0 - - 5 - - - -
16/12:00am 9.0 SW 4 6 1022.3 - 0.0 - - 10 - - - -
 
Date/Time
CDT
Temp
°C
Wind Pressure Rain since
9am
mm
Weather Cloud Vis
km
Sea
Height
m
Swell
Dir  Spd
kts
Gust
kts
hPa Trend Height
m
Period
s
Dir
15/11:30pm 9.4 WSW 5 7 1022.5 - 0.0 - - 10 - - - -
15/11:00pm 10.1 SW 5 6 1022.7 - 0.0 - - 10 - - - -
15/10:30pm 10.7 SSW 5 6 1022.8 - 0.0 - - 10 - - - -
15/10:00pm 10.0 SW 7 8 1022.8 - 0.0 - - 10 - - - -
15/09:30pm 10.7 SW 4 5 1022.6 - 0.0 - - 10 - - - -
15/09:00pm 11.4 SW 5 6 1022.2 - 0.0 - - 10 - - - -
15/08:30pm 12.3 SE 5 6 1021.8 - 0.0 - - 10 - - - -
15/08:00pm 13.0 SE 6 8 1021.8 - 0.0 - - 10 - - - -
15/07:30pm 13.9 SE 8 11 1021.7 - 0.0 - - 10 - - - -
15/07:00pm 15.2 SE 8 11 1021.8 - 0.0 - - 10 - - - -
15/06:30pm 15.9 SE 12 15 1021.6 - 0.0 - - 10 - - - -
15/06:00pm 17.0 SE 12 15 1021.7 - 0.0 - - 10 - - - -
15/05:30pm 17.8 SE 13 18 1021.6 - 0.0 - - 10 - - - -
15/05:00pm 17.7 SE 15 19 1021.8 - 0.0 - - 10 - - - -
15/04:30pm 18.3 SE 14 18 1021.9 - 0.0 - - 10 - - - -

Other Formats:

Comma delimited format used in spreadsheet applications
http://www.bom.gov.au/fwo/IDS60701/IDS60701.95807.axf

JavaScript Object Notation format (JSON) in row-major order
http://www.bom.gov.au/fwo/IDS60701/IDS60701.95807.json